sensor_id;sensor_type;location;lat;lon;timestamp;P1;durP1;ratioP1;P2;durP2;ratioP2
31018;SDS011;17689;45.610;5.858;2022-07-19T00:01:43;6.30;;;3.73;;
31018;SDS011;17689;45.610;5.858;2022-07-19T00:04:09;9.33;;;4.10;;
31018;SDS011;17689;45.610;5.858;2022-07-19T00:06:36;7.27;;;3.73;;
31018;SDS011;17689;45.610;5.858;2022-07-19T00:09:03;5.70;;;4.10;;
31018;SDS011;17689;45.610;5.858;2022-07-19T00:11:30;5.73;;;4.00;;
31018;SDS011;17689;45.610;5.858;2022-07-19T00:13:56;7.40;;;4.30;;
31018;SDS011;17689;45.610;5.858;2022-07-19T00:16:22;8.53;;;3.87;;
31018;SDS011;17689;45.610;5.858;2022-07-19T00:18:48;8.33;;;3.80;;
31018;SDS011;17689;45.610;5.858;2022-07-19T00:21:14;6.03;;;3.97;;
31018;SDS011;17689;45.610;5.858;2022-07-19T00:23:40;8.23;;;4.00;;
31018;SDS011;17689;45.610;5.858;2022-07-19T00:26:07;7.47;;;4.07;;
31018;SDS011;17689;45.610;5.858;2022-07-19T00:28:33;7.50;;;3.70;;
31018;SDS011;17689;45.610;5.858;2022-07-19T00:30:59;6.13;;;4.40;;
31018;SDS011;17689;45.610;5.858;2022-07-19T00:33:25;5.80;;;3.87;;
31018;SDS011;17689;45.610;5.858;2022-07-19T00:35:51;6.17;;;3.70;;
31018;SDS011;17689;45.610;5.858;2022-07-19T00:38:18;7.23;;;4.20;;
31018;SDS011;17689;45.610;5.858;2022-07-19T00:40:44;6.57;;;3.90;;
31018;SDS011;17689;45.610;5.858;2022-07-19T00:43:10;7.13;;;4.40;;
31018;SDS011;17689;45.610;5.858;2022-07-19T00:45:38;6.77;;;4.30;;
31018;SDS011;17689;45.610;5.858;2022-07-19T00:48:04;5.87;;;4.33;;
31018;SDS011;17689;45.610;5.858;2022-07-19T00:50:30;7.37;;;4.27;;
31018;SDS011;17689;45.610;5.858;2022-07-19T00:52:57;7.63;;;4.30;;
31018;SDS011;17689;45.610;5.858;2022-07-19T00:55:30;7.67;;;4.03;;
31018;SDS011;17689;45.610;5.858;2022-07-19T00:57:57;8.97;;;4.00;;
31018;SDS011;17689;45.610;5.858;2022-07-19T01:00:24;6.43;;;3.90;;
31018;SDS011;17689;45.610;5.858;2022-07-19T01:02:51;7.97;;;4.20;;
31018;SDS011;17689;45.610;5.858;2022-07-19T01:05:17;6.50;;;4.40;;
31018;SDS011;17689;45.610;5.858;2022-07-19T01:07:44;8.17;;;4.20;;
31018;SDS011;17689;45.610;5.858;2022-07-19T01:10:11;6.37;;;4.43;;
31018;SDS011;17689;45.610;5.858;2022-07-19T01:12:37;6.97;;;4.93;;
31018;SDS011;17689;45.610;5.858;2022-07-19T01:15:14;7.10;;;4.30;;
31018;SDS011;17689;45.610;5.858;2022-07-19T01:17:40;8.07;;;4.00;;
31018;SDS011;17689;45.610;5.858;2022-07-19T01:20:06;6.13;;;4.30;;
31018;SDS011;17689;45.610;5.858;2022-07-19T01:22:32;6.23;;;4.27;;
31018;SDS011;17689;45.610;5.858;2022-07-19T01:24:59;5.63;;;4.07;;
31018;SDS011;17689;45.610;5.858;2022-07-19T01:27:25;5.23;;;4.40;;
31018;SDS011;17689;45.610;5.858;2022-07-19T01:29:51;5.23;;;4.67;;
31018;SDS011;17689;45.610;5.858;2022-07-19T01:32:17;6.73;;;4.60;;
31018;SDS011;17689;45.610;5.858;2022-07-19T01:34:43;9.00;;;4.80;;
31018;SDS011;17689;45.610;5.858;2022-07-19T01:37:09;5.60;;;4.63;;
31018;SDS011;17689;45.610;5.858;2022-07-19T01:39:36;7.30;;;4.70;;
31018;SDS011;17689;45.610;5.858;2022-07-19T01:42:02;7.30;;;4.87;;
31018;SDS011;17689;45.610;5.858;2022-07-19T01:44:28;6.03;;;4.93;;
31018;SDS011;17689;45.610;5.858;2022-07-19T01:46:54;6.47;;;4.93;;
31018;SDS011;17689;45.610;5.858;2022-07-19T01:49:20;6.87;;;5.13;;
31018;SDS011;17689;45.610;5.858;2022-07-19T01:51:46;5.90;;;5.10;;
31018;SDS011;17689;45.610;5.858;2022-07-19T01:54:13;6.60;;;5.50;;
31018;SDS011;17689;45.610;5.858;2022-07-19T01:56:43;6.57;;;5.23;;
31018;SDS011;17689;45.610;5.858;2022-07-19T01:59:09;7.67;;;5.17;;
31018;SDS011;17689;45.610;5.858;2022-07-19T02:01:35;6.00;;;5.40;;
31018;SDS011;17689;45.610;5.858;2022-07-19T02:04:01;7.20;;;5.97;;
31018;SDS011;17689;45.610;5.858;2022-07-19T02:06:27;8.43;;;5.77;;
31018;SDS011;17689;45.610;5.858;2022-07-19T02:08:54;6.73;;;5.60;;
31018;SDS011;17689;45.610;5.858;2022-07-19T02:11:20;6.73;;;5.90;;
31018;SDS011;17689;45.610;5.858;2022-07-19T02:14:05;6.77;;;5.60;;
31018;SDS011;17689;45.610;5.858;2022-07-19T02:16:32;7.90;;;5.73;;
31018;SDS011;17689;45.610;5.858;2022-07-19T02:18:58;7.90;;;5.67;;
31018;SDS011;17689;45.610;5.858;2022-07-19T02:21:24;8.60;;;5.47;;
31018;SDS011;17689;45.610;5.858;2022-07-19T02:23:51;6.97;;;5.57;;
31018;SDS011;17689;45.610;5.858;2022-07-19T02:26:17;7.20;;;5.70;;
31018;SDS011;17689;45.610;5.858;2022-07-19T02:28:43;6.33;;;5.70;;
31018;SDS011;17689;45.610;5.858;2022-07-19T02:31:09;9.87;;;5.70;;
31018;SDS011;17689;45.610;5.858;2022-07-19T02:33:35;7.80;;;5.40;;
31018;SDS011;17689;45.610;5.858;2022-07-19T02:36:02;5.77;;;5.17;;
31018;SDS011;17689;45.610;5.858;2022-07-19T02:38:29;6.80;;;5.47;;
31018;SDS011;17689;45.610;5.858;2022-07-19T02:40:55;7.43;;;5.60;;
31018;SDS011;17689;45.610;5.858;2022-07-19T02:43:21;6.90;;;5.33;;
31018;SDS011;17689;45.610;5.858;2022-07-19T02:45:47;8.77;;;5.73;;
31018;SDS011;17689;45.610;5.858;2022-07-19T02:48:14;8.87;;;5.60;;
31018;SDS011;17689;45.610;5.858;2022-07-19T02:50:40;6.03;;;5.13;;
31018;SDS011;17689;45.610;5.858;2022-07-19T02:53:06;8.73;;;5.50;;
31018;SDS011;17689;45.610;5.858;2022-07-19T02:55:32;7.57;;;5.47;;
31018;SDS011;17689;45.610;5.858;2022-07-19T02:57:59;6.70;;;5.60;;
31018;SDS011;17689;45.610;5.858;2022-07-19T03:00:25;6.00;;;5.40;;
31018;SDS011;17689;45.610;5.858;2022-07-19T03:02:51;7.40;;;6.03;;
31018;SDS011;17689;45.610;5.858;2022-07-19T03:05:17;6.37;;;5.73;;
31018;SDS011;17689;45.610;5.858;2022-07-19T03:07:44;7.60;;;5.80;;
31018;SDS011;17689;45.610;5.858;2022-07-19T03:10:10;8.67;;;5.23;;
31018;SDS011;17689;45.610;5.858;2022-07-19T03:12:36;5.97;;;5.37;;
31018;SDS011;17689;45.610;5.858;2022-07-19T03:15:02;5.73;;;5.17;;
31018;SDS011;17689;45.610;5.858;2022-07-19T03:17:29;7.53;;;5.40;;
31018;SDS011;17689;45.610;5.858;2022-07-19T03:19:55;6.73;;;5.07;;
31018;SDS011;17689;45.610;5.858;2022-07-19T03:22:21;8.47;;;5.73;;
31018;SDS011;17689;45.610;5.858;2022-07-19T03:24:48;6.63;;;5.53;;
31018;SDS011;17689;45.610;5.858;2022-07-19T03:27:14;7.90;;;5.80;;
31018;SDS011;17689;45.610;5.858;2022-07-19T03:29:40;7.23;;;5.67;;
31018;SDS011;17689;45.610;5.858;2022-07-19T03:32:06;7.20;;;5.43;;
31018;SDS011;17689;45.610;5.858;2022-07-19T03:34:32;7.93;;;5.97;;
31018;SDS011;17689;45.610;5.858;2022-07-19T03:36:59;8.33;;;6.00;;
31018;SDS011;17689;45.610;5.858;2022-07-19T03:39:25;8.40;;;5.73;;
31018;SDS011;17689;45.610;5.858;2022-07-19T03:41:51;9.77;;;6.03;;
31018;SDS011;17689;45.610;5.858;2022-07-19T03:44:17;10.03;;;6.43;;
31018;SDS011;17689;45.610;5.858;2022-07-19T03:46:43;9.07;;;6.23;;
31018;SDS011;17689;45.610;5.858;2022-07-19T03:49:09;9.10;;;6.00;;
31018;SDS011;17689;45.610;5.858;2022-07-19T03:51:35;11.10;;;5.90;;
31018;SDS011;17689;45.610;5.858;2022-07-19T03:54:02;7.10;;;5.83;;
31018;SDS011;17689;45.610;5.858;2022-07-19T03:56:28;8.50;;;6.40;;
31018;SDS011;17689;45.610;5.858;2022-07-19T03:58:54;7.83;;;5.97;;
31018;SDS011;17689;45.610;5.858;2022-07-19T04:01:20;7.63;;;5.83;;
31018;SDS011;17689;45.610;5.858;2022-07-19T04:03:46;11.20;;;5.70;;
31018;SDS011;17689;45.610;5.858;2022-07-19T04:06:12;7.13;;;5.93;;
31018;SDS011;17689;45.610;5.858;2022-07-19T04:08:39;9.07;;;5.73;;
31018;SDS011;17689;45.610;5.858;2022-07-19T04:11:05;7.07;;;5.43;;
31018;SDS011;17689;45.610;5.858;2022-07-19T04:13:32;15.63;;;6.70;;
31018;SDS011;17689;45.610;5.858;2022-07-19T04:15:58;8.13;;;6.30;;
31018;SDS011;17689;45.610;5.858;2022-07-19T04:18:24;7.77;;;5.93;;
31018;SDS011;17689;45.610;5.858;2022-07-19T04:20:50;8.60;;;5.97;;
31018;SDS011;17689;45.610;5.858;2022-07-19T04:23:17;12.83;;;5.80;;
31018;SDS011;17689;45.610;5.858;2022-07-19T04:25:43;12.50;;;5.87;;
31018;SDS011;17689;45.610;5.858;2022-07-19T04:28:09;8.73;;;6.23;;
31018;SDS011;17689;45.610;5.858;2022-07-19T04:30:35;9.40;;;5.77;;
31018;SDS011;17689;45.610;5.858;2022-07-19T04:33:02;7.70;;;5.60;;
31018;SDS011;17689;45.610;5.858;2022-07-19T04:35:28;11.27;;;6.57;;
31018;SDS011;17689;45.610;5.858;2022-07-19T04:37:54;11.80;;;5.87;;
31018;SDS011;17689;45.610;5.858;2022-07-19T04:40:20;6.67;;;5.33;;
31018;SDS011;17689;45.610;5.858;2022-07-19T04:42:46;31.40;;;7.00;;
31018;SDS011;17689;45.610;5.858;2022-07-19T04:45:13;15.83;;;6.00;;
31018;SDS011;17689;45.610;5.858;2022-07-19T04:47:39;11.67;;;6.00;;
31018;SDS011;17689;45.610;5.858;2022-07-19T04:50:05;8.77;;;5.50;;
31018;SDS011;17689;45.610;5.858;2022-07-19T04:52:32;10.70;;;5.67;;
31018;SDS011;17689;45.610;5.858;2022-07-19T04:54:58;10.17;;;5.30;;
31018;SDS011;17689;45.610;5.858;2022-07-19T04:57:24;9.87;;;5.70;;
31018;SDS011;17689;45.610;5.858;2022-07-19T04:59:50;8.13;;;5.70;;
31018;SDS011;17689;45.610;5.858;2022-07-19T05:02:16;7.23;;;5.23;;
31018;SDS011;17689;45.610;5.858;2022-07-19T05:04:42;6.43;;;4.90;;
31018;SDS011;17689;45.610;5.858;2022-07-19T05:07:08;7.80;;;5.47;;
31018;SDS011;17689;45.610;5.858;2022-07-19T05:09:35;9.43;;;5.00;;
31018;SDS011;17689;45.610;5.858;2022-07-19T05:12:01;9.13;;;5.40;;
31018;SDS011;17689;45.610;5.858;2022-07-19T05:14:30;8.17;;;5.37;;
31018;SDS011;17689;45.610;5.858;2022-07-19T05:16:57;10.23;;;5.37;;
31018;SDS011;17689;45.610;5.858;2022-07-19T05:19:23;8.33;;;4.97;;
31018;SDS011;17689;45.610;5.858;2022-07-19T05:21:50;7.67;;;5.30;;
31018;SDS011;17689;45.610;5.858;2022-07-19T05:24:16;10.03;;;5.50;;
31018;SDS011;17689;45.610;5.858;2022-07-19T05:26:42;13.23;;;6.00;;
31018;SDS011;17689;45.610;5.858;2022-07-19T05:29:09;8.63;;;5.70;;
31018;SDS011;17689;45.610;5.858;2022-07-19T05:31:35;15.83;;;6.17;;
31018;SDS011;17689;45.610;5.858;2022-07-19T05:34:01;7.30;;;5.77;;
31018;SDS011;17689;45.610;5.858;2022-07-19T05:36:28;11.23;;;5.27;;
31018;SDS011;17689;45.610;5.858;2022-07-19T05:38:54;11.20;;;5.63;;
31018;SDS011;17689;45.610;5.858;2022-07-19T05:41:21;11.27;;;5.77;;
31018;SDS011;17689;45.610;5.858;2022-07-19T05:43:47;11.23;;;5.93;;
31018;SDS011;17689;45.610;5.858;2022-07-19T05:46:14;20.20;;;6.37;;
31018;SDS011;17689;45.610;5.858;2022-07-19T05:48:42;15.77;;;6.40;;
31018;SDS011;17689;45.610;5.858;2022-07-19T05:51:08;19.47;;;6.37;;
31018;SDS011;17689;45.610;5.858;2022-07-19T05:53:35;14.90;;;5.97;;
31018;SDS011;17689;45.610;5.858;2022-07-19T05:56:01;9.83;;;5.87;;
31018;SDS011;17689;45.610;5.858;2022-07-19T05:58:28;11.20;;;6.00;;
31018;SDS011;17689;45.610;5.858;2022-07-19T06:00:54;12.97;;;5.67;;
31018;SDS011;17689;45.610;5.858;2022-07-19T06:03:39;16.40;;;5.73;;
31018;SDS011;17689;45.610;5.858;2022-07-19T06:06:06;14.57;;;5.63;;
31018;SDS011;17689;45.610;5.858;2022-07-19T06:08:32;12.80;;;5.60;;
31018;SDS011;17689;45.610;5.858;2022-07-19T06:10:58;13.47;;;6.13;;
31018;SDS011;17689;45.610;5.858;2022-07-19T06:13:25;16.10;;;6.43;;
31018;SDS011;17689;45.610;5.858;2022-07-19T06:15:52;54.60;;;8.70;;
31018;SDS011;17689;45.610;5.858;2022-07-19T06:18:18;24.70;;;5.87;;
31018;SDS011;17689;45.610;5.858;2022-07-19T06:20:44;14.23;;;6.10;;
31018;SDS011;17689;45.610;5.858;2022-07-19T06:23:10;23.97;;;9.70;;
31018;SDS011;17689;45.610;5.858;2022-07-19T06:25:36;24.13;;;7.00;;
31018;SDS011;17689;45.610;5.858;2022-07-19T06:28:03;22.20;;;7.03;;
31018;SDS011;17689;45.610;5.858;2022-07-19T06:30:29;15.90;;;6.20;;
31018;SDS011;17689;45.610;5.858;2022-07-19T06:32:55;10.83;;;6.13;;
31018;SDS011;17689;45.610;5.858;2022-07-19T06:35:21;22.10;;;6.87;;
31018;SDS011;17689;45.610;5.858;2022-07-19T06:37:48;23.27;;;6.97;;
31018;SDS011;17689;45.610;5.858;2022-07-19T06:40:14;17.67;;;6.80;;
31018;SDS011;17689;45.610;5.858;2022-07-19T06:42:40;25.00;;;6.87;;
31018;SDS011;17689;45.610;5.858;2022-07-19T06:45:06;17.33;;;6.00;;
31018;SDS011;17689;45.610;5.858;2022-07-19T06:47:33;16.93;;;6.80;;
31018;SDS011;17689;45.610;5.858;2022-07-19T06:49:59;17.40;;;6.10;;
31018;SDS011;17689;45.610;5.858;2022-07-19T06:52:25;18.23;;;6.90;;
31018;SDS011;17689;45.610;5.858;2022-07-19T06:54:51;14.90;;;6.97;;
31018;SDS011;17689;45.610;5.858;2022-07-19T06:57:18;21.27;;;7.23;;
31018;SDS011;17689;45.610;5.858;2022-07-19T06:59:44;23.27;;;7.43;;
31018;SDS011;17689;45.610;5.858;2022-07-19T07:02:10;14.03;;;6.97;;
31018;SDS011;17689;45.610;5.858;2022-07-19T07:04:36;23.10;;;7.10;;
31018;SDS011;17689;45.610;5.858;2022-07-19T07:07:02;10.23;;;6.13;;
31018;SDS011;17689;45.610;5.858;2022-07-19T07:09:28;9.77;;;6.03;;
31018;SDS011;17689;45.610;5.858;2022-07-19T07:11:55;11.90;;;7.17;;
31018;SDS011;17689;45.610;5.858;2022-07-19T07:14:21;14.90;;;7.00;;
31018;SDS011;17689;45.610;5.858;2022-07-19T07:16:47;11.27;;;6.50;;
31018;SDS011;17689;45.610;5.858;2022-07-19T07:19:13;14.10;;;7.20;;
31018;SDS011;17689;45.610;5.858;2022-07-19T07:21:39;19.30;;;7.73;;
31018;SDS011;17689;45.610;5.858;2022-07-19T07:24:06;14.00;;;6.77;;
31018;SDS011;17689;45.610;5.858;2022-07-19T07:26:32;12.60;;;6.60;;
31018;SDS011;17689;45.610;5.858;2022-07-19T07:28:58;17.07;;;8.00;;
31018;SDS011;17689;45.610;5.858;2022-07-19T07:31:25;10.27;;;6.50;;
31018;SDS011;17689;45.610;5.858;2022-07-19T07:33:51;9.10;;;6.63;;
31018;SDS011;17689;45.610;5.858;2022-07-19T07:36:17;9.87;;;6.70;;
31018;SDS011;17689;45.610;5.858;2022-07-19T07:38:43;10.40;;;6.27;;
31018;SDS011;17689;45.610;5.858;2022-07-19T07:41:10;11.17;;;6.47;;
31018;SDS011;17689;45.610;5.858;2022-07-19T07:43:36;10.43;;;6.30;;
31018;SDS011;17689;45.610;5.858;2022-07-19T07:46:02;11.63;;;6.73;;
31018;SDS011;17689;45.610;5.858;2022-07-19T07:48:28;11.10;;;6.60;;
31018;SDS011;17689;45.610;5.858;2022-07-19T07:50:54;13.77;;;6.97;;
31018;SDS011;17689;45.610;5.858;2022-07-19T07:53:21;17.37;;;7.00;;
31018;SDS011;17689;45.610;5.858;2022-07-19T07:55:47;14.07;;;6.93;;
31018;SDS011;17689;45.610;5.858;2022-07-19T07:58:13;24.10;;;7.23;;
31018;SDS011;17689;45.610;5.858;2022-07-19T08:00:39;18.83;;;6.97;;
31018;SDS011;17689;45.610;5.858;2022-07-19T08:03:06;14.73;;;6.90;;
31018;SDS011;17689;45.610;5.858;2022-07-19T08:05:32;12.70;;;6.70;;
31018;SDS011;17689;45.610;5.858;2022-07-19T08:07:59;14.53;;;6.90;;
31018;SDS011;17689;45.610;5.858;2022-07-19T08:10:27;21.83;;;6.60;;
31018;SDS011;17689;45.610;5.858;2022-07-19T08:12:53;17.70;;;6.87;;
31018;SDS011;17689;45.610;5.858;2022-07-19T08:15:20;13.90;;;6.73;;
31018;SDS011;17689;45.610;5.858;2022-07-19T08:17:47;13.07;;;6.33;;
31018;SDS011;17689;45.610;5.858;2022-07-19T08:20:13;11.87;;;7.00;;
31018;SDS011;17689;45.610;5.858;2022-07-19T08:22:39;14.37;;;6.60;;
31018;SDS011;17689;45.610;5.858;2022-07-19T08:25:06;10.90;;;6.47;;
31018;SDS011;17689;45.610;5.858;2022-07-19T08:27:33;14.93;;;6.83;;
31018;SDS011;17689;45.610;5.858;2022-07-19T08:29:59;25.97;;;7.73;;
31018;SDS011;17689;45.610;5.858;2022-07-19T08:32:26;20.37;;;7.00;;
31018;SDS011;17689;45.610;5.858;2022-07-19T08:34:52;25.20;;;7.80;;
31018;SDS011;17689;45.610;5.858;2022-07-19T08:37:18;14.53;;;7.13;;
31018;SDS011;17689;45.610;5.858;2022-07-19T08:39:44;12.03;;;6.20;;
31018;SDS011;17689;45.610;5.858;2022-07-19T08:42:10;10.57;;;6.37;;
31018;SDS011;17689;45.610;5.858;2022-07-19T08:44:36;21.40;;;7.17;;
31018;SDS011;17689;45.610;5.858;2022-07-19T08:47:05;10.63;;;6.20;;
31018;SDS011;17689;45.610;5.858;2022-07-19T08:49:31;12.27;;;6.10;;
31018;SDS011;17689;45.610;5.858;2022-07-19T08:51:58;14.80;;;6.70;;
31018;SDS011;17689;45.610;5.858;2022-07-19T08:54:26;25.00;;;7.63;;
31018;SDS011;17689;45.610;5.858;2022-07-19T08:56:52;34.83;;;8.77;;
31018;SDS011;17689;45.610;5.858;2022-07-19T08:59:36;10.80;;;6.70;;
31018;SDS011;17689;45.610;5.858;2022-07-19T09:02:03;12.90;;;6.50;;
31018;SDS011;17689;45.610;5.858;2022-07-19T09:04:29;10.20;;;6.10;;
31018;SDS011;17689;45.610;5.858;2022-07-19T09:06:56;11.33;;;6.47;;
31018;SDS011;17689;45.610;5.858;2022-07-19T09:11:49;15.90;;;6.70;;
31018;SDS011;17689;45.610;5.858;2022-07-19T09:17:05;10.73;;;6.50;;
31018;SDS011;17689;45.610;5.858;2022-07-19T09:19:39;10.10;;;6.43;;
31018;SDS011;17689;45.610;5.858;2022-07-19T09:22:08;18.37;;;7.00;;
31018;SDS011;17689;45.610;5.858;2022-07-19T09:24:38;15.97;;;7.37;;
31018;SDS011;17689;45.610;5.858;2022-07-19T09:27:09;21.37;;;7.37;;
31018;SDS011;17689;45.610;5.858;2022-07-19T09:29:36;10.97;;;6.40;;
31018;SDS011;17689;45.610;5.858;2022-07-19T09:34:30;19.70;;;7.00;;
31018;SDS011;17689;45.610;5.858;2022-07-19T09:37:41;21.93;;;6.83;;
31018;SDS011;17689;45.610;5.858;2022-07-19T09:39:43;10.67;;;6.63;;
31018;SDS011;17689;45.610;5.858;2022-07-19T09:44:58;10.50;;;6.47;;
31018;SDS011;17689;45.610;5.858;2022-07-19T09:47:34;14.33;;;6.63;;
31018;SDS011;17689;45.610;5.858;2022-07-19T09:50:02;12.00;;;6.63;;
31018;SDS011;17689;45.610;5.858;2022-07-19T09:52:29;10.33;;;6.23;;
31018;SDS011;17689;45.610;5.858;2022-07-19T09:54:55;8.87;;;6.10;;
31018;SDS011;17689;45.610;5.858;2022-07-19T09:57:24;10.47;;;7.00;;
31018;SDS011;17689;45.610;5.858;2022-07-19T09:59:51;12.57;;;6.77;;
31018;SDS011;17689;45.610;5.858;2022-07-19T10:02:22;10.33;;;6.20;;
31018;SDS011;17689;45.610;5.858;2022-07-19T10:04:49;9.43;;;6.33;;
31018;SDS011;17689;45.610;5.858;2022-07-19T10:07:16;10.33;;;6.30;;
31018;SDS011;17689;45.610;5.858;2022-07-19T10:09:46;8.47;;;6.37;;
31018;SDS011;17689;45.610;5.858;2022-07-19T10:12:12;8.77;;;6.37;;
31018;SDS011;17689;45.610;5.858;2022-07-19T10:14:38;7.80;;;6.30;;
31018;SDS011;17689;45.610;5.858;2022-07-19T10:17:26;8.17;;;6.00;;
31018;SDS011;17689;45.610;5.858;2022-07-19T10:19:54;9.70;;;6.50;;
31018;SDS011;17689;45.610;5.858;2022-07-19T10:22:22;17.07;;;6.53;;
31018;SDS011;17689;45.610;5.858;2022-07-19T10:24:53;9.97;;;6.63;;
31018;SDS011;17689;45.610;5.858;2022-07-19T10:32:18;16.97;;;6.73;;
31018;SDS011;17689;45.610;5.858;2022-07-19T10:34:44;10.23;;;6.33;;
31018;SDS011;17689;45.610;5.858;2022-07-19T10:37:38;10.87;;;6.60;;
31018;SDS011;17689;45.610;5.858;2022-07-19T10:40:02;10.83;;;7.20;;
31018;SDS011;17689;45.610;5.858;2022-07-19T10:42:28;9.53;;;6.77;;
31018;SDS011;17689;45.610;5.858;2022-07-19T10:50:05;12.90;;;6.80;;
31018;SDS011;17689;45.610;5.858;2022-07-19T10:52:35;10.63;;;6.40;;
31018;SDS011;17689;45.610;5.858;2022-07-19T10:57:46;15.07;;;7.13;;
31018;SDS011;17689;45.610;5.858;2022-07-19T11:00:23;9.80;;;6.47;;
31018;SDS011;17689;45.610;5.858;2022-07-19T11:02:51;8.47;;;6.53;;
31018;SDS011;17689;45.610;5.858;2022-07-19T11:05:27;7.20;;;6.40;;
31018;SDS011;17689;45.610;5.858;2022-07-19T11:07:55;7.53;;;6.40;;
31018;SDS011;17689;45.610;5.858;2022-07-19T11:10:25;7.03;;;6.17;;
31018;SDS011;17689;45.610;5.858;2022-07-19T11:12:52;14.77;;;7.00;;
31018;SDS011;17689;45.610;5.858;2022-07-19T11:15:19;12.30;;;6.63;;
31018;SDS011;17689;45.610;5.858;2022-07-19T11:20:27;7.80;;;6.70;;
31018;SDS011;17689;45.610;5.858;2022-07-19T11:22:53;25.23;;;7.77;;
31018;SDS011;17689;45.610;5.858;2022-07-19T11:25:27;26.93;;;7.37;;
31018;SDS011;17689;45.610;5.858;2022-07-19T11:27:53;23.43;;;7.70;;
31018;SDS011;17689;45.610;5.858;2022-07-19T11:30:21;24.83;;;7.80;;
31018;SDS011;17689;45.610;5.858;2022-07-19T11:32:51;12.10;;;6.80;;
31018;SDS011;17689;45.610;5.858;2022-07-19T11:35:18;11.23;;;7.10;;
31018;SDS011;17689;45.610;5.858;2022-07-19T11:37:44;8.53;;;6.43;;
31018;SDS011;17689;45.610;5.858;2022-07-19T11:40:11;11.10;;;7.50;;
31018;SDS011;17689;45.610;5.858;2022-07-19T11:45:24;10.87;;;6.97;;
31018;SDS011;17689;45.610;5.858;2022-07-19T11:47:51;11.13;;;7.20;;
31018;SDS011;17689;45.610;5.858;2022-07-19T11:50:18;17.37;;;7.83;;
31018;SDS011;17689;45.610;5.858;2022-07-19T11:52:55;13.27;;;7.47;;
31018;SDS011;17689;45.610;5.858;2022-07-19T11:55:26;14.97;;;7.80;;
31018;SDS011;17689;45.610;5.858;2022-07-19T11:57:53;9.97;;;6.80;;
31018;SDS011;17689;45.610;5.858;2022-07-19T12:00:20;11.60;;;7.47;;
31018;SDS011;17689;45.610;5.858;2022-07-19T12:03:00;9.70;;;7.23;;
31018;SDS011;17689;45.610;5.858;2022-07-19T12:05:35;13.80;;;7.77;;
31018;SDS011;17689;45.610;5.858;2022-07-19T12:08:06;9.40;;;7.33;;
31018;SDS011;17689;45.610;5.858;2022-07-19T12:13:05;11.33;;;7.43;;
31018;SDS011;17689;45.610;5.858;2022-07-19T12:15:51;16.33;;;7.40;;
31018;SDS011;17689;45.610;5.858;2022-07-19T12:18:19;12.60;;;7.70;;
31018;SDS011;17689;45.610;5.858;2022-07-19T12:21:13;8.77;;;7.67;;
31018;SDS011;17689;45.610;5.858;2022-07-19T12:23:32;10.83;;;8.00;;
31018;SDS011;17689;45.610;5.858;2022-07-19T12:26:04;9.43;;;7.80;;
31018;SDS011;17689;45.610;5.858;2022-07-19T12:28:30;8.70;;;7.80;;
31018;SDS011;17689;45.610;5.858;2022-07-19T12:31:03;10.80;;;7.67;;
31018;SDS011;17689;45.610;5.858;2022-07-19T12:33:30;11.60;;;7.93;;
31018;SDS011;17689;45.610;5.858;2022-07-19T12:35:56;13.50;;;8.43;;
31018;SDS011;17689;45.610;5.858;2022-07-19T12:38:31;9.23;;;7.77;;
31018;SDS011;17689;45.610;5.858;2022-07-19T12:41:05;13.63;;;8.67;;
31018;SDS011;17689;45.610;5.858;2022-07-19T12:43:31;12.77;;;8.73;;
31018;SDS011;17689;45.610;5.858;2022-07-19T12:45:59;9.13;;;8.23;;
31018;SDS011;17689;45.610;5.858;2022-07-19T12:48:26;10.63;;;8.10;;
31018;SDS011;17689;45.610;5.858;2022-07-19T12:50:53;10.27;;;8.50;;
31018;SDS011;17689;45.610;5.858;2022-07-19T12:53:19;11.50;;;7.47;;
31018;SDS011;17689;45.610;5.858;2022-07-19T12:55:47;10.47;;;8.10;;
31018;SDS011;17689;45.610;5.858;2022-07-19T12:58:14;11.30;;;8.10;;
31018;SDS011;17689;45.610;5.858;2022-07-19T13:01:00;8.70;;;7.80;;
31018;SDS011;17689;45.610;5.858;2022-07-19T13:03:27;9.40;;;7.90;;
31018;SDS011;17689;45.610;5.858;2022-07-19T13:05:53;9.97;;;7.77;;
31018;SDS011;17689;45.610;5.858;2022-07-19T13:08:19;13.43;;;8.27;;
31018;SDS011;17689;45.610;5.858;2022-07-19T13:10:45;15.30;;;8.97;;
31018;SDS011;17689;45.610;5.858;2022-07-19T13:13:11;10.73;;;8.63;;
31018;SDS011;17689;45.610;5.858;2022-07-19T13:15:38;10.23;;;8.33;;
31018;SDS011;17689;45.610;5.858;2022-07-19T13:18:04;11.13;;;8.73;;
31018;SDS011;17689;45.610;5.858;2022-07-19T13:20:31;9.03;;;8.13;;
31018;SDS011;17689;45.610;5.858;2022-07-19T13:22:57;9.67;;;8.43;;
31018;SDS011;17689;45.610;5.858;2022-07-19T13:25:23;13.87;;;9.10;;
31018;SDS011;17689;45.610;5.858;2022-07-19T13:27:49;14.00;;;8.87;;
31018;SDS011;17689;45.610;5.858;2022-07-19T13:30:16;16.83;;;8.77;;
31018;SDS011;17689;45.610;5.858;2022-07-19T13:32:42;15.07;;;9.10;;
31018;SDS011;17689;45.610;5.858;2022-07-19T13:35:08;19.50;;;9.57;;
31018;SDS011;17689;45.610;5.858;2022-07-19T13:37:34;11.77;;;9.17;;
31018;SDS011;17689;45.610;5.858;2022-07-19T13:40:01;22.00;;;9.73;;
31018;SDS011;17689;45.610;5.858;2022-07-19T13:42:27;15.00;;;9.60;;
31018;SDS011;17689;45.610;5.858;2022-07-19T13:44:53;10.77;;;9.03;;
31018;SDS011;17689;45.610;5.858;2022-07-19T13:47:19;13.47;;;9.23;;
31018;SDS011;17689;45.610;5.858;2022-07-19T13:49:45;10.30;;;8.30;;
31018;SDS011;17689;45.610;5.858;2022-07-19T13:52:12;12.90;;;8.83;;
31018;SDS011;17689;45.610;5.858;2022-07-19T13:54:38;11.50;;;9.00;;
31018;SDS011;17689;45.610;5.858;2022-07-19T13:57:04;9.47;;;8.57;;
31018;SDS011;17689;45.610;5.858;2022-07-19T13:59:30;10.20;;;9.20;;
31018;SDS011;17689;45.610;5.858;2022-07-19T14:01:58;11.03;;;8.73;;
31018;SDS011;17689;45.610;5.858;2022-07-19T14:04:25;11.90;;;9.70;;
31018;SDS011;17689;45.610;5.858;2022-07-19T14:06:51;10.27;;;9.27;;
31018;SDS011;17689;45.610;5.858;2022-07-19T14:09:17;11.37;;;9.80;;
31018;SDS011;17689;45.610;5.858;2022-07-19T14:11:44;11.10;;;9.13;;
31018;SDS011;17689;45.610;5.858;2022-07-19T14:14:10;12.57;;;9.57;;
31018;SDS011;17689;45.610;5.858;2022-07-19T14:16:36;11.20;;;10.00;;
31018;SDS011;17689;45.610;5.858;2022-07-19T14:19:02;10.83;;;9.93;;
31018;SDS011;17689;45.610;5.858;2022-07-19T14:21:28;10.60;;;9.50;;
31018;SDS011;17689;45.610;5.858;2022-07-19T14:23:59;18.53;;;10.50;;
31018;SDS011;17689;45.610;5.858;2022-07-19T14:26:25;10.57;;;9.40;;
31018;SDS011;17689;45.610;5.858;2022-07-19T14:28:51;10.33;;;9.33;;
31018;SDS011;17689;45.610;5.858;2022-07-19T14:31:17;10.47;;;9.60;;
31018;SDS011;17689;45.610;5.858;2022-07-19T14:33:43;13.53;;;9.13;;
31018;SDS011;17689;45.610;5.858;2022-07-19T14:36:09;13.33;;;9.33;;
31018;SDS011;17689;45.610;5.858;2022-07-19T14:38:36;10.53;;;9.63;;
31018;SDS011;17689;45.610;5.858;2022-07-19T14:41:02;12.53;;;9.50;;
31018;SDS011;17689;45.610;5.858;2022-07-19T14:43:28;10.43;;;9.33;;
31018;SDS011;17689;45.610;5.858;2022-07-19T14:45:54;10.60;;;9.60;;
31018;SDS011;17689;45.610;5.858;2022-07-19T14:48:20;10.70;;;9.70;;
31018;SDS011;17689;45.610;5.858;2022-07-19T14:50:47;10.80;;;9.23;;
31018;SDS011;17689;45.610;5.858;2022-07-19T14:53:13;10.63;;;9.47;;
31018;SDS011;17689;45.610;5.858;2022-07-19T14:55:39;10.43;;;9.53;;
31018;SDS011;17689;45.610;5.858;2022-07-19T14:58:05;11.17;;;9.90;;
31018;SDS011;17689;45.610;5.858;2022-07-19T15:00:32;10.10;;;9.27;;
31018;SDS011;17689;45.610;5.858;2022-07-19T15:02:58;10.57;;;9.47;;
31018;SDS011;17689;45.610;5.858;2022-07-19T15:05:24;10.47;;;9.43;;
31018;SDS011;17689;45.610;5.858;2022-07-19T15:07:51;10.60;;;9.60;;
31018;SDS011;17689;45.610;5.858;2022-07-19T15:10:17;15.87;;;9.80;;
31018;SDS011;17689;45.610;5.858;2022-07-19T15:12:43;11.00;;;9.90;;